Time;durP1;ratioP1;P1;durP2;ratioP2;P2;SDS_P1;SDS_P2;PMS_P1;PMS_P2;Temp;Humidity;BMP_temperature;BMP_pressure;BME280_temperature;BME280_humidity;BME280_pressure;Samples;Min_cycle;Max_cycle;Signal;HPM_P1;HPM_P2
2023/06/10 00:01:28;;;;;;;9.88;5.93;;;20.30;99.90;;;;;;4837333;29;20034;-74
2023/06/10 00:03:55;;;;;;;12.88;5.55;;;20.00;99.90;;;;;;4818737;29;20121;-74
2023/06/10 00:06:35;;;;;;;18.55;11.32;;;19.80;99.90;;;;;;4837292;29;20042;-75
2023/06/10 00:09:14;;;;;;;10.38;6.18;;;19.60;99.90;;;;;;4789303;29;20112;-75
2023/06/10 00:11:49;;;;;;;9.63;5.75;;;19.50;99.90;;;;;;4816918;29;20157;-73
2023/06/10 00:14:28;;;;;;;9.20;5.43;;;19.60;99.90;;;;;;4792762;29;20058;-74
2023/06/10 00:17:23;;;;;;;11.15;6.20;;;19.90;99.90;;;;;;4821156;29;20070;-72
2023/06/10 00:20:13;;;;;;;10.80;5.22;;;20.00;99.90;;;;;;4796927;29;20154;-74
2023/06/10 00:22:57;;;;;;;10.77;5.30;;;19.90;99.90;;;;;;4787766;29;20445;-74
2023/06/10 00:25:36;;;;;;;12.52;5.50;;;20.00;99.90;;;;;;4783304;29;20145;-74
2023/06/10 00:28:15;;;;;;;17.13;5.50;;;19.80;99.90;;;;;;4819896;29;20500;-73
2023/06/10 00:30:50;;;;;;;9.40;5.50;;;19.70;99.90;;;;;;4793132;29;20058;-75
2023/06/10 00:33:17;;;;;;;11.98;6.45;;;19.40;99.90;;;;;;4792141;29;20046;-77
2023/06/10 00:35:52;;;;;;;10.80;7.60;;;19.20;99.90;;;;;;4821895;29;20042;-74
2023/06/10 00:38:45;;;;;;;19.05;9.80;;;18.90;99.90;;;;;;4787522;29;20050;-75
2023/06/10 00:41:21;;;;;;;14.90;9.82;;;18.60;99.90;;;;;;4779926;29;20054;-76
2023/06/10 00:43:48;;;;;;;15.93;9.32;;;19.00;99.90;;;;;;4814070;29;20058;-76
2023/06/10 00:46:19;;;;;;;16.00;9.70;;;19.20;99.90;;;;;;4821770;29;20042;-75
2023/06/10 00:48:52;;;;;;;12.23;8.48;;;19.60;99.90;;;;;;4780951;29;20403;-75
2023/06/10 00:51:19;;;;;;;;;;;19.70;99.90;;;;;;4777504;29;20728;-74
2023/06/10 00:54:01;;;;;;;11.73;5.47;;;19.80;99.90;;;;;;4774121;29;19925;-74
2023/06/10 00:56:44;;;;;;;10.77;6.17;;;19.80;99.90;;;;;;4792774;29;20050;-74
2023/06/10 00:59:22;;;;;;;9.55;5.40;;;19.90;99.90;;;;;;4779201;29;20367;-75
2023/06/10 01:02:10;;;;;;;10.68;5.05;;;19.90;99.90;;;;;;4806978;29;20091;-74
2023/06/10 01:04:47;;;;;;;7.75;4.57;;;19.90;99.90;;;;;;4785499;29;20486;-75
2023/06/10 01:08:07;;;;;;;9.80;5.10;;;20.00;99.90;;;;;;4776900;29;20047;-74
2023/06/10 01:11:07;;;;;;;8.88;5.03;;;20.10;99.90;;;;;;4802548;29;20058;-73
2023/06/10 01:14:17;;;;;;;9.07;4.82;;;20.10;99.90;;;;;;4793449;24;20059;-74
2023/06/10 01:16:53;;;;;;;;;;;19.70;99.90;;;;;;4839506;29;20059;-73
2023/06/10 01:19:33;;;;;;;10.15;4.78;;;19.70;99.90;;;;;;4838250;29;19969;-73
2023/06/10 01:22:22;;;;;;;9.57;4.15;;;19.60;99.90;;;;;;4833092;29;20045;-72
2023/06/10 01:24:58;;;;;;;9.20;4.28;;;19.60;99.90;;;;;;4846184;29;20049;-73
2023/06/10 01:27:30;;;;;;;8.27;4.07;;;19.70;99.90;;;;;;4865598;29;20045;-75
2023/06/10 01:30:25;;;;;;;7.90;3.78;;;19.70;99.90;;;;;;4864054;29;20115;-74
2023/06/10 01:33:12;;;;;;;7.70;4.25;;;19.70;99.90;;;;;;4847398;23;20053;-75
2023/06/10 01:35:49;;;;;;;7.38;3.90;;;19.60;99.90;;;;;;4841380;29;20487;-73
2023/06/10 01:38:32;;;;;;;12.88;4.07;;;19.60;99.90;;;;;;4817627;29;20398;-76
2023/06/10 01:41:01;;;;;;;7.95;3.63;;;19.50;99.90;;;;;;4857124;29;20494;-72
2023/06/10 01:43:32;;;;;;;8.60;4.97;;;19.50;99.90;;;;;;4856698;29;20438;-72
2023/06/10 01:46:04;;;;;;;9.30;5.05;;;19.70;99.90;;;;;;4824895;29;20057;-74
2023/06/10 01:48:32;;;;;;;10.13;5.97;;;19.80;99.90;;;;;;4831564;29;20054;-74
2023/06/10 01:51:00;;;;;;;8.60;5.57;;;19.70;99.90;;;;;;4848030;29;20053;-73
2023/06/10 01:53:27;;;;;;;13.60;5.75;;;19.70;99.90;;;;;;4844224;29;20046;-75
2023/06/10 01:56:08;;;;;;;9.73;5.82;;;19.70;99.90;;;;;;4827019;29;20048;-74
2023/06/10 01:58:35;;;;;;;7.93;5.18;;;19.70;99.90;;;;;;4861903;29;20041;-74
2023/06/10 02:01:03;;;;;;;8.38;5.00;;;19.60;99.90;;;;;;4849503;29;20033;-74
2023/06/10 02:03:31;;;;;;;11.02;5.75;;;19.40;99.90;;;;;;4842020;29;20110;-73
2023/06/10 02:06:14;;;;;;;20.23;5.97;;;19.50;99.90;;;;;;4825787;29;20518;-73
2023/06/10 02:08:54;;;;;;;9.07;5.95;;;19.50;99.90;;;;;;4834790;29;20056;-74
2023/06/10 02:11:21;;;;;;;8.40;5.07;;;19.40;99.90;;;;;;4844140;29;20129;-75
2023/06/10 02:13:49;;;;;;;8.25;5.30;;;19.40;99.90;;;;;;4843582;29;20482;-74
2023/06/10 02:16:18;;;;;;;9.60;5.40;;;19.10;99.90;;;;;;4836636;29;20475;-76
2023/06/10 02:18:46;;;;;;;12.75;5.57;;;19.00;99.90;;;;;;4830457;29;20088;-77
2023/06/10 02:21:13;;;;;;;9.88;5.80;;;18.90;99.90;;;;;;4829240;29;20047;-77
2023/06/10 02:23:40;;;;;;;10.82;5.97;;;18.80;99.90;;;;;;4844023;29;20472;-77
2023/06/10 02:26:08;;;;;;;7.75;5.30;;;18.80;99.90;;;;;;4827714;29;20050;-76
2023/06/10 02:28:35;;;;;;;7.28;5.63;;;18.60;99.90;;;;;;4836009;29;20095;-78
2023/06/10 02:31:02;;;;;;;9.20;5.30;;;18.60;99.90;;;;;;4823968;29;20045;-75
2023/06/10 02:33:30;;;;;;;9.13;6.20;;;18.50;99.90;;;;;;4835250;29;20042;-79
2023/06/10 02:35:57;;;;;;;9.10;6.15;;;18.60;99.90;;;;;;4822418;29;20173;-75
2023/06/10 02:38:24;;;;;;;7.57;5.60;;;18.70;99.90;;;;;;4836392;29;20083;-78
2023/06/10 02:40:52;;;;;;;8.57;5.20;;;18.70;99.90;;;;;;4843120;29;20054;-77
2023/06/10 02:43:19;;;;;;;8.75;5.38;;;18.80;99.90;;;;;;4835804;29;20085;-76
2023/06/10 02:45:46;;;;;;;8.75;5.47;;;18.60;99.90;;;;;;4827396;29;20391;-73
2023/06/10 02:48:13;;;;;;;8.13;5.80;;;18.60;99.90;;;;;;4828862;29;20452;-77
2023/06/10 02:50:41;;;;;;;10.52;5.68;;;18.40;99.90;;;;;;4827009;29;20071;-77
2023/06/10 02:53:09;;;;;;;10.88;5.90;;;18.60;99.90;;;;;;4827333;29;20053;-76
2023/06/10 02:55:37;;;;;;;8.50;5.65;;;18.70;99.90;;;;;;4825795;29;20389;-78
2023/06/10 02:58:05;;;;;;;12.57;6.03;;;18.60;99.90;;;;;;4810573;29;20066;-77
2023/06/10 03:00:33;;;;;;;15.35;6.93;;;18.60;99.90;;;;;;4823743;29;20492;-75
2023/06/10 03:03:02;;;;;;;12.38;5.68;;;18.70;99.90;;;;;;4827219;29;20411;-75
2023/06/10 03:05:31;;;;;;;11.50;5.72;;;18.70;99.90;;;;;;4824802;29;20070;-74
2023/06/10 03:07:58;;;;;;;17.27;6.90;;;18.70;99.90;;;;;;4830783;29;20061;-76
2023/06/10 03:10:26;;;;;;;9.73;5.72;;;18.60;99.90;;;;;;4808930;29;20051;-75
2023/06/10 03:12:54;;;;;;;9.60;5.47;;;18.60;99.90;;;;;;4823588;29;20050;-74
2023/06/10 03:15:21;;;;;;;7.70;5.68;;;18.70;99.90;;;;;;4823575;29;20075;-74
2023/06/10 03:17:49;;;;;;;13.55;6.03;;;18.70;99.90;;;;;;4793016;29;20054;-74
2023/06/10 03:20:18;;;;;;;9.27;5.50;;;18.70;99.90;;;;;;4827041;29;20129;-73
2023/06/10 03:22:46;;;;;;;11.55;5.82;;;18.70;99.90;;;;;;4810668;29;20057;-74
2023/06/10 03:25:16;;;;;;;11.30;6.38;;;18.60;99.90;;;;;;4812816;29;20076;-75
2023/06/10 03:27:43;;;;;;;9.95;6.00;;;18.80;99.90;;;;;;4824006;29;20532;-75
2023/06/10 03:30:12;;;;;;;9.32;5.30;;;18.80;99.90;;;;;;4823271;29;20042;-74
2023/06/10 03:32:40;;;;;;;9.85;5.30;;;18.70;99.90;;;;;;4834646;29;20111;-73
2023/06/10 03:35:08;;;;;;;9.60;5.63;;;18.70;99.90;;;;;;4823149;29;20103;-73
2023/06/10 03:37:36;;;;;;;9.40;5.28;;;18.90;99.90;;;;;;4822304;29;20046;-75
2023/06/10 03:40:04;;;;;;;9.63;5.50;;;19.00;99.90;;;;;;4831680;29;20046;-74
2023/06/10 03:42:37;;;;;;;9.50;5.47;;;18.90;99.90;;;;;;4821714;29;20081;-75
2023/06/10 03:45:05;;;;;;;11.35;5.45;;;18.90;99.90;;;;;;4799564;29;20464;-75
2023/06/10 03:47:40;;;;;;;8.20;5.80;;;18.90;99.90;;;;;;4806241;29;20062;-75
2023/06/10 03:50:08;;;;;;;11.23;5.95;;;19.00;99.90;;;;;;4835201;29;20495;-75
2023/06/10 03:52:37;;;;;;;11.90;5.97;;;19.00;99.90;;;;;;4810550;29;20522;-75
2023/06/10 03:55:05;;;;;;;9.95;6.93;;;19.00;99.90;;;;;;4811862;29;20046;-75
2023/06/10 03:57:33;;;;;;;18.75;7.03;;;18.90;99.90;;;;;;4830228;29;20050;-74
2023/06/10 04:00:00;;;;;;;14.50;7.28;;;18.90;99.90;;;;;;4820520;29;20082;-72
2023/06/10 04:02:41;;;;;;;12.90;8.32;;;19.00;99.90;;;;;;4824126;29;20133;-74
2023/06/10 04:05:24;;;;;;;18.80;8.90;;;18.80;99.90;;;;;;4825009;29;20054;-73
2023/06/10 04:07:51;;;;;;;11.13;7.88;;;19.10;99.90;;;;;;4829287;29;20057;-73
2023/06/10 04:10:18;;;;;;;11.10;7.78;;;19.30;99.90;;;;;;4804448;29;20432;-73
2023/06/10 04:12:46;;;;;;;14.18;8.07;;;19.30;99.90;;;;;;4791457;29;20050;-74
2023/06/10 04:15:13;;;;;;;15.25;7.72;;;19.40;99.90;;;;;;4831878;29;20404;-74
2023/06/10 04:17:44;;;;;;;10.85;7.90;;;19.40;99.90;;;;;;4796284;29;20054;-73
2023/06/10 04:20:11;;;;;;;15.95;8.43;;;19.40;99.90;;;;;;4822021;29;20054;-75
2023/06/10 04:22:38;;;;;;;12.38;7.43;;;19.40;99.90;;;;;;4829796;29;20073;-74
2023/06/10 04:25:14;;;;;;;12.90;7.03;;;19.40;99.90;;;;;;4821905;29;20077;-73
2023/06/10 04:27:44;;;;;;;14.93;7.32;;;19.60;99.90;;;;;;4804752;29;20047;-75
2023/06/10 04:30:12;;;;;;;11.02;6.93;;;19.80;99.90;;;;;;4822387;29;20047;-74
2023/06/10 04:32:40;;;;;;;13.25;6.60;;;19.70;99.90;;;;;;4817288;29;20065;-73
2023/06/10 04:35:08;;;;;;;9.98;6.53;;;19.80;99.90;;;;;;4840258;29;20054;-74
2023/06/10 04:37:36;;;;;;;15.38;7.82;;;20.00;99.90;;;;;;4808159;29;20169;-74
2023/06/10 04:40:05;;;;;;;11.23;6.63;;;19.70;99.90;;;;;;4841513;29;20050;-74
2023/06/10 04:42:32;;;;;;;11.45;6.75;;;19.80;99.90;;;;;;4841493;29;20414;-75
2023/06/10 04:45:00;;;;;;;10.50;6.78;;;20.00;99.90;;;;;;4841530;29;20144;-77
2023/06/10 04:47:28;;;;;;;11.43;6.72;;;20.10;99.90;;;;;;4841687;29;20046;-75
2023/06/10 04:49:58;;;;;;;9.65;6.15;;;20.10;99.90;;;;;;4812610;29;20106;-74
2023/06/10 04:52:27;;;;;;;12.10;6.15;;;20.10;99.90;;;;;;4839455;29;20053;-73
2023/06/10 04:54:54;;;;;;;9.40;5.90;;;20.20;99.90;;;;;;4809371;29;20061;-74
2023/06/10 04:57:22;;;;;;;10.70;5.57;;;20.30;99.90;;;;;;4840868;29;20097;-74
2023/06/10 05:00:03;;;;;;;8.75;5.47;;;20.30;99.90;;;;;;4840627;29;20507;-76
2023/06/10 05:02:54;;;;;;;11.88;5.70;;;20.50;99.90;;;;;;4823263;29;20114;-75
2023/06/10 05:05:37;;;;;;;7.97;5.50;;;20.50;99.90;;;;;;4825231;29;20050;-75
2023/06/10 05:08:04;;;;;;;9.30;5.45;;;20.60;99.90;;;;;;4842077;29;20075;-74
2023/06/10 05:10:34;;;;;;;9.15;5.53;;;20.60;99.90;;;;;;4844121;29;20121;-74
2023/06/10 05:13:02;;;;;;;8.43;5.10;;;20.80;99.90;;;;;;4845938;29;20517;-76
2023/06/10 05:15:32;;;;;;;9.95;4.93;;;20.80;99.90;;;;;;4844160;29;20470;-76
2023/06/10 05:21:26;;;;;;;7.75;4.65;;;20.90;99.90;;;;;;4838097;29;20140;-75
2023/06/10 05:27:43;;;;;;;10.30;5.25;;;20.50;99.90;;;;;;4845341;29;20539;-76
2023/06/10 05:30:11;;;;;;;9.02;5.15;;;20.80;99.90;;;;;;4846681;29;20069;-76
2023/06/10 05:32:38;;;;;;;14.20;5.63;;;20.90;99.90;;;;;;4845190;29;20518;-76
2023/06/10 05:35:08;;;;;;;13.70;6.35;;;20.70;99.90;;;;;;4845556;29;20046;-75
2023/06/10 05:37:57;;;;;;;9.52;5.85;;;20.00;99.90;;;;;;4830473;29;20368;-73
2023/06/10 05:40:50;;;;;;;12.27;6.20;;;20.10;99.90;;;;;;4805916;29;20049;-76
2023/06/10 05:43:17;;;;;;;10.73;5.63;;;20.10;99.90;;;;;;4844819;29;20037;-78
2023/06/10 05:45:44;;;;;;;13.63;6.32;;;20.40;99.90;;;;;;4844754;29;20045;-77
2023/06/10 05:48:12;;;;;;;11.55;6.00;;;20.60;99.90;;;;;;4828564;29;20038;-74
2023/06/10 05:50:42;;;;;;;9.13;6.28;;;20.70;99.90;;;;;;4843299;29;20054;-74
2023/06/10 05:53:16;;;;;;;12.65;6.65;;;20.60;99.90;;;;;;4822410;29;20050;-74
2023/06/10 05:55:45;;;;;;;11.90;5.78;;;20.40;99.90;;;;;;4825249;29;20050;-75
2023/06/10 05:58:17;;;;;;;10.35;6.18;;;20.80;99.90;;;;;;4829666;29;20046;-74
2023/06/10 06:00:45;;;;;;;10.52;5.90;;;20.90;99.90;;;;;;4809614;29;20065;-75
2023/06/10 06:03:13;;;;;;;11.45;5.60;;;21.10;99.90;;;;;;4828037;29;20050;-75
2023/06/10 06:05:41;;;;;;;10.88;5.82;;;21.20;99.90;;;;;;4843465;29;20410;-76
2023/06/10 06:08:10;;;;;;;10.13;6.70;;;21.10;99.90;;;;;;4845179;29;20563;-75
2023/06/10 06:10:37;;;;;;;9.13;5.15;;;20.80;99.90;;;;;;4845364;29;20053;-78
2023/06/10 06:13:05;;;;;;;8.85;5.72;;;20.90;99.90;;;;;;4846436;29;20049;-77
2023/06/10 06:15:38;;;;;;;15.68;5.50;;;21.00;99.90;;;;;;4829100;29;20448;-76
2023/06/10 06:18:14;;;;;;;9.95;5.70;;;20.90;99.90;;;;;;4830200;29;20122;-79
2023/06/10 06:20:51;;;;;;;17.23;5.43;;;21.10;99.90;;;;;;4844288;29;20454;-76
2023/06/10 06:23:34;;;;;;;10.00;5.70;;;21.40;99.90;;;;;;4825975;29;20053;-77
2023/06/10 06:26:13;;;;;;;14.65;6.28;;;21.50;99.90;;;;;;4844170;29;20130;-76
2023/06/10 06:29:34;;;;;;;11.23;6.10;;;21.50;99.90;;;;;;4827643;29;20049;-75
2023/06/10 06:32:30;;;;;;;9.07;5.40;;;21.50;99.90;;;;;;4834570;29;20548;-75
2023/06/10 06:35:21;;;;;;;10.65;6.32;;;21.60;99.90;;;;;;4814760;29;20069;-75
2023/06/10 06:37:51;;;;;;;14.40;6.40;;;21.60;99.90;;;;;;4829100;29;20050;-76
2023/06/10 06:40:28;;;;;;;14.88;6.28;;;21.60;99.90;;;;;;4845642;29;20114;-75
2023/06/10 06:42:56;;;;;;;11.57;6.10;;;21.50;99.90;;;;;;4813479;29;20050;-76
2023/06/10 06:45:23;;;;;;;13.68;6.55;;;21.50;99.90;;;;;;4844717;29;20106;-77
2023/06/10 06:47:51;;;;;;;13.18;6.68;;;21.70;99.90;;;;;;4843893;29;20050;-75
2023/06/10 06:50:19;;;;;;;8.88;5.75;;;21.70;99.90;;;;;;4827049;29;20057;-75
2023/06/10 06:52:46;;;;;;;9.05;5.97;;;21.80;99.90;;;;;;4843965;29;20495;-75
2023/06/10 06:55:14;;;;;;;11.45;6.28;;;21.90;99.90;;;;;;4812991;29;20150;-75
2023/06/10 06:57:56;;;;;;;16.73;6.15;;;22.00;99.90;;;;;;4828827;29;20148;-77
2023/06/10 07:01:16;;;;;;;11.88;6.43;;;22.00;99.90;;;;;;4830968;29;20142;-77
2023/06/10 07:04:28;;;;;;;13.38;6.40;;;22.10;99.90;;;;;;4778807;29;20614;-76
2023/06/10 07:06:56;;;;;;;9.60;6.10;;;22.50;99.90;;;;;;4844152;29;20066;-75
2023/06/10 07:10:01;;;;;;;11.88;6.10;;;22.70;99.90;;;;;;4816256;29;20094;-76
2023/06/10 07:13:07;;;;;;;13.38;6.00;;;22.70;99.90;;;;;;4842918;29;20117;-77
2023/06/10 07:15:48;;;;;;;11.18;6.13;;;22.60;99.90;;;;;;4844093;29;20399;-77
2023/06/10 07:18:19;;;;;;;11.05;6.78;;;22.30;99.90;;;;;;4850856;29;20050;-77
2023/06/10 07:21:29;;;;;;;11.73;5.95;;;22.40;99.90;;;;;;4820641;29;20050;-77
2023/06/10 07:23:57;;;;;;;10.90;6.43;;;22.40;99.90;;;;;;4823806;29;20115;-77
2023/06/10 07:26:30;;;;;;;12.23;6.47;;;22.60;99.90;;;;;;4843059;29;20495;-76
2023/06/10 07:29:35;;;;;;;15.55;5.85;;;22.40;99.90;;;;;;4823755;29;20045;-75
2023/06/10 07:32:04;;;;;;;10.68;6.70;;;22.60;99.90;;;;;;4846630;29;20113;-76
2023/06/10 07:34:31;;;;;;;10.30;6.47;;;22.50;99.90;;;;;;4845690;29;20095;-75
2023/06/10 07:37:00;;;;;;;13.00;6.80;;;22.50;99.90;;;;;;4848066;29;20064;-78
2023/06/10 07:39:27;;;;;;;13.82;5.80;;;22.70;99.90;;;;;;4847585;29;20038;-76
2023/06/10 07:41:56;;;;;;;11.10;5.88;;;22.70;99.90;;;;;;4844964;29;20483;-75
2023/06/10 07:44:26;;;;;;;9.88;6.18;;;22.70;99.90;;;;;;4844571;29;20073;-75
2023/06/10 07:47:00;;;;;;;10.60;5.82;;;22.70;99.90;;;;;;4812249;29;20414;-77
2023/06/10 07:49:30;;;;;;;12.85;6.07;;;22.80;99.90;;;;;;4846553;29;20089;-76
2023/06/10 07:55:08;;;;;;;11.35;5.80;;;23.00;99.90;;;;;;4844752;29;20046;-76
2023/06/10 07:58:03;;;;;;;10.90;5.45;;;22.80;99.90;;;;;;4831277;29;20068;-78
2023/06/10 08:00:35;;;;;;;14.38;5.55;;;22.70;99.90;;;;;;4830114;29;20050;-77
2023/06/10 08:03:55;;;;;;;9.85;5.30;;;23.00;99.90;;;;;;4845249;29;20141;-75
2023/06/10 08:06:33;;;;;;;16.73;6.13;;;23.20;99.90;;;;;;4830212;29;20060;-77
2023/06/10 08:09:01;;;;;;;11.68;6.00;;;23.30;99.90;;;;;;4829925;29;20042;-76
2023/06/10 08:11:33;;;;;;;28.35;18.17;;;23.30;99.90;;;;;;4846082;29;20079;-76
2023/06/10 08:14:39;;;;;;;20.13;13.05;;;23.40;99.90;;;;;;4840295;29;20073;-78
2023/06/10 08:17:37;;;;;;;84.00;52.70;;;23.40;99.90;;;;;;4837371;29;20046;-77
2023/06/10 08:20:56;;;;;;;;;;;23.50;99.90;;;;;;4849462;29;20042;-78
2023/06/10 08:27:36;;;;;;;27.35;12.38;;;23.50;99.90;;;;;;4839874;29;20114;-78
2023/06/10 08:30:57;;;;;;;31.58;22.65;;;23.80;99.90;;;;;;4787307;29;20051;-76
2023/06/10 08:47:43;;;;;;;11.27;4.88;;;24.40;99.90;;;;;;5046565;23;20079;-77
2023/06/10 08:50:52;;;;;;;7.65;4.00;;;24.20;99.90;;;;;;4875939;29;20040;-78
2023/06/10 08:53:20;;;;;;;14.75;4.20;;;23.90;99.90;;;;;;4867003;29;20101;-78
2023/06/10 08:56:10;;;;;;;8.63;4.70;;;24.00;99.90;;;;;;4866297;29;20067;-76
2023/06/10 09:01:42;;;;;;;9.57;5.03;;;24.30;99.90;;;;;;4934571;23;20108;-75
2023/06/10 09:18:31;;;;;;;10.48;5.35;;;25.00;99.90;;;;;;4961700;23;20049;-77
2023/06/10 09:21:39;;;;;;;24.67;12.70;;;25.30;99.90;;;;;;4877023;29;20050;-80
2023/06/10 09:28:07;;;;;;;;;;;;;;;;;;;;;
2023/06/10 09:35:09;;;;;;;10.98;3.90;;;25.70;99.10;;;;;;4876082;29;20049;-74
2023/06/10 09:37:51;;;;;;;7.30;4.00;;;25.90;99.20;;;;;;4872045;29;20053;-77
2023/06/10 09:40:31;;;;;;;8.60;4.32;;;26.00;98.90;;;;;;4844949;29;20068;-76
2023/06/10 09:49:57;;;;;;;8.35;3.65;;;26.50;98.20;;;;;;5192999;23;20089;-78
2023/06/10 10:01:12;;;;;;;22.23;13.02;;;26.70;96.30;;;;;;5209846;23;21017;-79
2023/06/10 10:18:16;;;;;;;7.60;4.20;;;27.20;95.60;;;;;;2811520;27;20045;-80
2023/06/10 10:20:52;;;;;;;8.10;4.00;;;27.30;94.90;;;;;;4872507;29;20061;-80
2023/06/10 10:23:33;;;;;;;9.30;4.97;;;27.50;93.90;;;;;;4889569;29;20070;-81
2023/06/10 10:26:37;;;;;;;9.23;4.50;;;27.40;94.20;;;;;;4887749;29;20124;-80
2023/06/10 10:29:58;;;;;;;10.50;4.85;;;27.20;93.40;;;;;;4857284;29;20085;-79
2023/06/10 10:32:57;;;;;;;11.02;4.03;;;26.90;94.00;;;;;;4890710;23;21267;-79
2023/06/10 10:35:39;;;;;;;7.45;3.63;;;26.80;94.20;;;;;;4848878;29;20060;-77
2023/06/10 10:39:12;;;;;;;6.83;3.93;;;27.20;93.90;;;;;;4867661;29;20399;-75
2023/06/10 10:42:00;;;;;;;10.23;3.70;;;27.30;93.20;;;;;;4862717;29;20345;-78
2023/06/10 10:48:14;;;;;;;12.10;3.90;;;27.80;92.80;;;;;;4999266;23;20052;-75
2023/06/10 10:51:06;;;;;;;7.75;3.63;;;28.00;92.70;;;;;;4836281;29;20058;-76
2023/06/10 10:53:45;;;;;;;8.68;4.45;;;28.10;91.70;;;;;;4851143;29;20494;-75
2023/06/10 10:57:26;;;;;;;9.10;4.13;;;28.20;91.00;;;;;;4841228;29;20053;-76
2023/06/10 11:00:26;;;;;;;9.73;3.97;;;28.40;91.20;;;;;;4867047;29;20034;-80
2023/06/10 11:03:12;;;;;;;10.50;3.65;;;28.40;90.30;;;;;;4868384;29;20077;-80
2023/06/10 11:05:50;;;;;;;7.40;4.07;;;27.80;87.10;;;;;;4863978;29;20106;-78
2023/06/10 11:08:50;;;;;;;18.90;12.57;;;27.90;89.60;;;;;;4812082;29;20046;-77
2023/06/10 11:11:32;;;;;;;18.13;9.50;;;28.20;90.50;;;;;;4793124;29;20047;-77
2023/06/10 11:14:39;;;;;;;10.13;4.70;;;28.10;90.40;;;;;;4780570;29;20054;-74
2023/06/10 11:17:31;;;;;;;12.32;4.50;;;28.10;89.20;;;;;;4790446;29;20111;-75
2023/06/10 11:20:00;;;;;;;10.50;4.25;;;28.20;88.80;;;;;;4805105;29;20608;-80
2023/06/10 11:23:05;;;;;;;6.80;3.97;;;28.50;89.00;;;;;;4783245;29;20093;-81
2023/06/10 11:25:44;;;;;;;16.73;6.50;;;28.60;87.40;;;;;;4791377;29;20056;-81
2023/06/10 11:28:19;;;;;;;7.03;3.75;;;28.70;87.00;;;;;;4823830;29;20058;-80
2023/06/10 11:30:57;;;;;;;11.10;5.65;;;28.90;87.40;;;;;;4817664;29;20123;-81
2023/06/10 11:33:25;;;;;;;8.80;5.38;;;28.50;82.90;;;;;;4781834;29;20062;-84
2023/06/10 11:35:55;;;;;;;7.97;3.63;;;28.20;84.70;;;;;;4824820;29;20150;-81
2023/06/10 11:38:24;;;;;;;8.77;3.80;;;28.20;83.60;;;;;;4799821;29;20058;-79
2023/06/10 11:40:51;;;;;;;9.70;4.05;;;28.30;84.50;;;;;;4859569;29;20045;-77
2023/06/10 11:43:22;;;;;;;11.13;3.85;;;28.60;82.80;;;;;;4848767;29;20460;-78
2023/06/10 11:46:00;;;;;;;9.38;4.88;;;28.30;82.00;;;;;;4857078;29;20106;-74
2023/06/10 11:48:33;;;;;;;8.18;3.88;;;28.40;84.50;;;;;;4807107;29;20468;-78
2023/06/10 11:51:07;;;;;;;10.02;3.85;;;28.80;85.20;;;;;;4851118;29;20064;-74
2023/06/10 11:53:38;;;;;;;7.97;3.92;;;28.90;84.10;;;;;;4834744;29;20058;-77
2023/06/10 11:56:06;;;;;;;10.43;4.35;;;29.10;84.70;;;;;;4861657;29;20053;-76
2023/06/10 11:58:47;;;;;;;8.48;4.15;;;29.30;83.60;;;;;;4851337;24;20438;-73
2023/06/10 12:01:28;;;;;;;8.10;3.58;;;29.40;84.00;;;;;;4843773;29;20045;-77
2023/06/10 12:04:05;;;;;;;8.68;4.10;;;29.60;81.40;;;;;;4852887;29;20044;-76
2023/06/10 12:06:56;;;;;;;6.72;3.50;;;29.70;79.30;;;;;;4866191;29;20052;-79
2023/06/10 12:09:36;;;;;;;7.28;3.60;;;29.50;76.40;;;;;;4869620;29;20056;-79
2023/06/10 12:12:32;;;;;;;9.43;4.18;;;29.90;78.90;;;;;;4889229;29;20080;-79
2023/06/10 12:15:54;;;;;;;7.65;3.70;;;30.20;80.00;;;;;;4888503;29;20048;-74
2023/06/10 12:18:24;;;;;;;5.80;3.95;;;29.80;80.80;;;;;;4876765;29;20426;-72
2023/06/10 12:20:51;;;;;;;12.10;4.07;;;28.90;84.10;;;;;;4871436;29;20074;-78
2023/06/10 12:23:22;;;;;;;;;;;28.40;84.90;;;;;;4906382;29;20104;-75
2023/06/10 12:26:05;;;;;;;8.20;4.03;;;27.90;86.40;;;;;;4865299;29;19978;-79
2023/06/10 12:28:54;;;;;;;7.32;3.63;;;27.50;87.70;;;;;;4894549;29;20036;-73
2023/06/10 12:31:23;;;;;;;10.93;4.15;;;27.30;88.80;;;;;;4866647;29;20039;-76
2023/06/10 12:34:09;;;;;;;7.28;3.92;;;27.20;88.80;;;;;;4910726;29;20076;-79
2023/06/10 12:36:37;;;;;;;7.32;4.20;;;27.40;90.30;;;;;;4891334;29;20040;-77
2023/06/10 12:39:08;;;;;;;30.45;21.10;;;27.20;90.80;;;;;;4875974;29;20413;-75
2023/06/10 12:41:56;;;;;;;43.08;31.17;;;26.90;91.40;;;;;;4897263;29;20049;-74
2023/06/10 12:44:32;;;;;;;10.15;7.07;;;26.80;91.90;;;;;;4889578;29;20119;-77
2023/06/10 12:47:00;;;;;;;32.03;21.38;;;26.90;92.00;;;;;;4875223;29;20489;-79
2023/06/10 12:49:28;;;;;;;60.42;42.50;;;27.00;91.80;;;;;;4858337;29;20048;-77
2023/06/10 12:51:57;;;;;;;12.53;8.47;;;26.90;91.70;;;;;;4873461;29;20068;-77
2023/06/10 12:54:28;;;;;;;6.68;4.45;;;26.90;91.70;;;;;;4881221;29;20127;-77
2023/06/10 12:57:04;;;;;;;7.57;4.65;;;26.90;91.30;;;;;;4878436;29;20045;-77
2023/06/10 12:59:50;;;;;;;13.60;10.73;;;26.80;91.40;;;;;;4882053;23;20054;-78
2023/06/10 13:02:24;;;;;;;80.00;59.85;;;26.70;91.00;;;;;;4856619;29;20370;-79
2023/06/10 13:05:02;;;;;;;12.00;9.02;;;26.60;91.40;;;;;;4870762;29;20068;-80
2023/06/10 13:07:35;;;;;;;9.52;5.65;;;26.50;91.50;;;;;;4849792;29;20041;-81
2023/06/10 13:10:07;;;;;;;34.15;24.48;;;26.40;91.60;;;;;;4877033;29;20069;-76
2023/06/10 13:12:41;;;;;;;13.82;10.45;;;26.50;92.00;;;;;;4860452;29;20061;-74
2023/06/10 13:15:15;;;;;;;9.88;6.15;;;26.50;91.50;;;;;;4836762;29;20073;-76
2023/06/10 13:17:49;;;;;;;11.07;6.50;;;26.40;91.30;;;;;;4840205;29;20549;-82
2023/06/10 13:20:37;;;;;;;15.75;11.88;;;26.40;91.10;;;;;;4875838;29;20034;-76
2023/06/10 13:23:21;;;;;;;23.23;17.50;;;26.50;90.90;;;;;;4855005;29;20045;-79
2023/06/10 13:25:49;;;;;;;9.75;6.50;;;26.70;90.90;;;;;;4861384;29;20053;-78
2023/06/10 13:28:16;;;;;;;8.13;4.65;;;26.90;90.70;;;;;;4874181;29;20060;-81
2023/06/10 13:30:43;;;;;;;44.85;32.78;;;27.10;90.40;;;;;;4873787;29;20083;-76
2023/06/10 13:33:13;;;;;;;16.63;12.93;;;27.20;90.60;;;;;;4874318;29;20067;-79
2023/06/10 13:35:46;;;;;;;9.25;6.35;;;27.30;90.30;;;;;;4875714;29;20057;-80
2023/06/10 13:38:13;;;;;;;63.25;44.88;;;27.60;90.00;;;;;;4884388;29;20065;-77
2023/06/10 13:40:45;;;;;;;35.53;29.15;;;27.80;89.30;;;;;;4874483;29;20070;-79
2023/06/10 13:43:13;;;;;;;45.88;38.80;;;27.80;88.80;;;;;;4855975;29;20053;-82
2023/06/10 13:45:40;;;;;;;123.30;90.07;;;27.70;89.90;;;;;;4880908;29;20065;-81
2023/06/10 13:48:15;;;;;;;14.02;11.38;;;27.80;88.50;;;;;;4868738;29;20097;-83
2023/06/10 13:50:45;;;;;;;9.50;6.35;;;27.90;88.00;;;;;;4869687;29;20482;-74
2023/06/10 13:53:13;;;;;;;11.50;7.25;;;28.20;86.60;;;;;;4842890;29;20072;-75
2023/06/10 13:55:52;;;;;;;15.57;8.30;;;28.70;86.40;;;;;;4856251;29;20165;-76
2023/06/10 13:58:20;;;;;;;8.88;4.40;;;29.30;85.70;;;;;;4858202;29;20080;-79
2023/06/10 14:00:49;;;;;;;7.78;4.68;;;29.00;83.00;;;;;;4875847;29;20064;-76
2023/06/10 14:03:17;;;;;;;7.80;4.80;;;29.00;83.70;;;;;;4838525;29;20137;-81
2023/06/10 14:05:49;;;;;;;8.52;4.53;;;29.00;83.30;;;;;;4886322;29;20311;-75
2023/06/10 14:08:25;;;;;;;6.20;3.90;;;29.70;82.50;;;;;;4849876;29;20060;-77
2023/06/10 14:10:56;;;;;;;7.22;3.65;;;29.50;81.60;;;;;;4866030;29;20080;-77
2023/06/10 14:13:28;;;;;;;7.00;4.57;;;28.80;82.60;;;;;;4857695;29;20125;-74
2023/06/10 14:16:02;;;;;;;9.65;3.25;;;28.50;82.50;;;;;;4858525;29;20072;-80
2023/06/10 14:18:35;;;;;;;7.03;3.50;;;28.30;80.80;;;;;;4886893;29;20041;-72
2023/06/10 14:21:04;;;;;;;5.15;3.42;;;27.80;81.30;;;;;;4838564;29;20053;-80
2023/06/10 14:23:34;;;;;;;5.72;3.83;;;27.50;81.50;;;;;;4870627;29;20045;-73
2023/06/10 14:26:08;;;;;;;6.03;3.33;;;27.20;81.20;;;;;;4857535;29;20110;-75
2023/06/10 14:28:40;;;;;;;5.50;2.85;;;27.10;81.00;;;;;;4883628;23;20061;-74
2023/06/10 14:31:11;;;;;;;7.45;4.55;;;27.10;81.60;;;;;;4838517;29;20050;-75
2023/06/10 14:33:43;;;;;;;22.92;15.77;;;27.00;81.40;;;;;;4864883;29;20056;-73
2023/06/10 14:36:20;;;;;;;24.67;17.73;;;27.00;81.70;;;;;;4864256;29;20057;-75
2023/06/10 14:39:12;;;;;;;26.42;17.40;;;27.70;80.40;;;;;;4859402;29;20048;-74
2023/06/10 14:42:08;;;;;;;18.55;14.73;;;28.10;80.40;;;;;;4875024;29;20075;-75
2023/06/10 14:45:00;;;;;;;13.48;11.02;;;27.90;82.60;;;;;;4846258;29;20117;-73
2023/06/10 14:47:27;;;;;;;12.65;5.18;;;28.60;78.70;;;;;;4876878;29;20050;-74
2023/06/10 14:49:55;;;;;;;7.88;4.22;;;29.20;79.00;;;;;;4888292;29;20064;-84
2023/06/10 14:52:25;;;;;;;5.45;3.60;;;28.70;80.80;;;;;;4846621;29;20078;-75
2023/06/10 14:55:03;;;;;;;9.90;5.32;;;28.40;78.80;;;;;;4861183;29;20140;-83
2023/06/10 14:57:49;;;;;;;6.95;4.25;;;27.80;82.20;;;;;;4857753;29;20049;-74
2023/06/10 15:00:37;;;;;;;6.75;4.10;;;27.30;82.40;;;;;;4868433;29;20144;-74